AirNav   Everest Fuels
 
 640 users online  

TN53 Parr Field Airport
Clarksville, Tennessee, USA

GOING TO CLARKSVILLE?


FAA INFORMATION EFFECTIVE 27 FEBRUARY 2020

Location

FAA Identifier: TN53
Lat/Long: 36-33-21.1740N 087-26-54.0370W
36-33.352900N 087-26.900617W
36.5558817,-87.4483436
(estimated)
Elevation: 590 ft. / 180 m (estimated)
Variation: 00W (1985)
From city: 5 miles W of CLARKSVILLE, TN
Time zone: UTC -6 (UTC -5 during Daylight Saving Time)
Zip code: 37042

Airport Operations

Airport use: Private use. Permission required prior to landing
Activation date: 01/1979
Control tower: no
ARTCC: MEMPHIS CENTER
FSS: JACKSON FLIGHT SERVICE STATION
Attendance: UNATNDD
Wind indicator: yes
Segmented circle: no

Airport Communications

WX AWOS-3 at EOD (1.7 nm NW): PHONE 270-956-3100
WX ASOS at CKV (4 nm N): 134.575 (931-431-3045)
WX AWOS-3 at HVC (18 nm N): 132.575 (270-886-6311)

Nearby radio navigation aids

VOR radial/distance  VOR name  Freq  Var
CKVr204/4.3CLARKSVILLE VOR/DME110.6001W

 
NDB name  Hdg/Dist  Freq  Var  ID
SNUFF301/3.433501WCK -.-. -.-
AIRBE190/11.027301WFK ..-. -.-
DICKSON359/25.720301WDMZ -.. -- --..

Airport Services

Runway Information

Runway N/S

Dimensions: 1700 x 100 ft. / 518 x 30 m
Surface: turf
RUNWAY N  RUNWAY S
Traffic pattern: rightright
Obstructions: trees, 10 ft. from runway
ALSO PLINE.
trees, 100 ft. from runway
ALSO PLINE.

Airport Ownership and Management from official FAA records

Ownership: Privately-owned
Owner: ROBERT PARR
1017 DOVER RD
CLARKSVILLE, TN 37042
Phone 615-647-0241
Manager: ROBERT PARR
1017 DOVER RD
CLARKSVILLE, TN 37042
Phone 615-645-2123

Airport Operational Statistics

Aircraft based on the field: 1
Single engine airplanes: 1
    

Additional Remarks

FOR CD CTC CAMPBELL APCH AT 270-798-6441.

Instrument Procedures

There are no published instrument procedures at TN53.

Some nearby airports with instrument procedures:

KEOD - Sabre Army Airfield (Fort Campbell) (2 nm NW)
KCKV - Outlaw Field Airport (4 nm N)
KHOP - Campbell Army Airfield (Fort Campbell) (7 nm N)
KHVC - Hopkinsville-Christian County Airport (18 nm N)
M91 - Springfield Robertson County Airport (25 nm E)
 
Loc | Ops | Rwys | IFR | FBO | Links
Com | Nav | Svcs | Stats | Notes
Area around TN53 (Parr Field Airport)
 
Road maps at: MapQuest Bing Google
 
Aerial photo
No photo
 
Sectional chart

 
Airport distance calculator
Flying to Parr Field Airport? Find the distance to fly.

From to TN53

Sunrise and sunset
Times for 29-Feb-2020
 Local
(UTC-6)
 Zulu
(UTC)
Morning civil twilight05:5611:56
Sunrise06:2112:21
Sunset17:4323:43
Evening civil twilight18:0900:09

Current date and time
Zulu (UTC)  29-Feb-2020 06:03:45
Local (UTC-6)  29-Feb-2020 00:03:45
 
METAR
KEOD 
2nm NW 
290558Z AUTO 28004KT 10SM CLR 03/02 A3016 RMK AO2 SLP219 60000 T00310018 10071 20021 400940021 52004
KCKV 
4nm NE 
290552Z AUTO 29007KT 10SM FEW055 03/02 A3017 RMK AO2 SLP217 60001 T00280017 10067 20028 401000028 53005
KHOP 
7nm N 
290556Z AUTO 31006KT 10SM SCT013 BKN065 02/02 A3016 RMK AO2 SLP218 60001 T00240024 10067 20016 400950016 52008
TAF
KCKV 
4nm NE 
290525Z 2906/0106 28005KT P6SM BKN035 FM290900 32006KT P6SM SCT070 FM291800 28006KT P6SM SKC FM010000 VRB03KT P6SM SKC
KHOP 
7nm N 
290000Z 2900/0106 26009KT 9000 -SHRA BKN080 OVC100 610809 QNH3010INS BECMG 2903/2904 31006KT 9999 NSW SCT020 QNH3017INS BECMG 2911/2912 33006KT 9999 SKC QNH3027INS BECMG 2917/2918 28006KT 9999 SKC QNH3020INS TX07/2921Z TNM02/2912Z
NOTAMs
Click for the latest NOTAMs
NOTAMs are issued by the DoD/FAA and will open in a separate window not controlled by AirNav.

 

 
 

Would you like to see your business listed on this page?

 If your business provides an interesting product or service to pilots, flight crews, aircraft, or users of the Parr Field Airport, you should consider listing it here.  To start the listing process, click on the button below
 
Add a business
 

Other Pages about Parr Field Airport

Update a link
 
Copyright © AirNav, LLC. All rights reserved. Privacy Policy  Contact